sensor_id;sensor_type;location;lat;lon;timestamp;pressure;altitude;pressure_sealevel;temperature;humidity
50250;BME280;36133;42.522;27.456;2022-09-09T00:04:27;101592.66;;;23.19;51.77
50250;BME280;36133;42.522;27.456;2022-09-09T00:09:29;101598.69;;;23.16;51.94
50250;BME280;36133;42.522;27.456;2022-09-09T00:12:11;101291.88;;;21.32;51.71
50250;BME280;36133;42.522;27.456;2022-09-09T00:17:46;101566.16;;;22.84;52.01
50250;BME280;36133;42.522;27.456;2022-09-09T00:23:14;101517.03;;;22.47;52.21
50250;BME280;36133;42.522;27.456;2022-09-09T00:29:04;101144.81;;;20.04;52.59
50250;BME280;36133;42.522;27.456;2022-09-09T00:31:29;101463.78;;;21.97;52.78
50250;BME280;36133;42.522;27.456;2022-09-09T00:34:32;101432.91;;;21.78;53.16
50250;BME280;36133;42.522;27.456;2022-09-09T00:36:52;101491.66;;;21.88;54.63
50250;BME280;36133;42.522;27.456;2022-09-09T00:39:31;101576.25;;;22.50;54.58
50250;BME280;36133;42.522;27.456;2022-09-09T00:42:23;101587.66;;;22.70;53.76
50250;BME280;36133;42.522;27.456;2022-09-09T00:45:02;101349.66;;;21.37;53.46
50250;BME280;36133;42.522;27.456;2022-09-09T00:47:44;101435.44;;;22.08;53.19
50250;BME280;36133;42.522;27.456;2022-09-09T00:53:05;101434.00;;;22.05;52.72
50250;BME280;36133;42.522;27.456;2022-09-09T00:58:27;101541.50;;;22.61;52.99
50250;BME280;36133;42.522;27.456;2022-09-09T01:01:01;101552.91;;;22.52;54.21
50250;BME280;36133;42.522;27.456;2022-09-09T01:03:38;101445.44;;;21.85;54.12
50250;BME280;36133;42.522;27.456;2022-09-09T01:09:13;101425.50;;;21.03;56.01
50250;BME280;36133;42.522;27.456;2022-09-09T01:17:21;101582.94;;;22.54;54.81
50250;BME280;36133;42.522;27.456;2022-09-09T01:26:15;101585.84;;;20.72;59.93
50250;BME280;36133;42.522;27.456;2022-09-09T01:28:44;101553.06;;;20.47;60.10
50250;BME280;36133;42.522;27.456;2022-09-09T01:31:15;101278.97;;;19.27;58.61
50250;BME280;36133;42.522;27.456;2022-09-09T01:33:42;101364.16;;;19.97;58.02
50250;BME280;36133;42.522;27.456;2022-09-09T01:38:49;101447.59;;;20.96;56.57
50250;BME280;36133;42.522;27.456;2022-09-09T01:41:15;100963.31;;;17.35;57.81
50250;BME280;36133;42.522;27.456;2022-09-09T01:43:40;101227.09;;;19.74;55.25
50250;BME280;36133;42.522;27.456;2022-09-09T01:46:06;101266.53;;;19.43;55.97
50250;BME280;36133;42.522;27.456;2022-09-09T01:48:32;101040.03;;;17.88;56.97
50250;BME280;36133;42.522;27.456;2022-09-09T01:50:58;101254.66;;;19.19;57.12
50250;BME280;36133;42.522;27.456;2022-09-09T01:53:23;101291.06;;;19.68;55.72
50250;BME280;36133;42.522;27.456;2022-09-09T02:02:21;101573.19;;;21.24;55.48
50250;BME280;36133;42.522;27.456;2022-09-09T02:04:56;101508.97;;;20.48;56.60
50250;BME280;36133;42.522;27.456;2022-09-09T02:10:09;101318.00;;;18.61;57.78
50250;BME280;36133;42.522;27.456;2022-09-09T02:12:39;101374.03;;;19.20;56.77
50250;BME280;36133;42.522;27.456;2022-09-09T02:15:47;101258.00;;;18.29;57.30
50250;BME280;36133;42.522;27.456;2022-09-09T02:18:20;101128.72;;;16.59;59.28
50250;BME280;36133;42.522;27.456;2022-09-09T02:20:49;101592.06;;;19.57;59.22
50250;BME280;36133;42.522;27.456;2022-09-09T02:23:19;101280.97;;;18.22;57.97
50250;BME280;36133;42.522;27.456;2022-09-09T02:25:46;101084.03;;;16.74;58.33
50250;BME280;36133;42.522;27.456;2022-09-09T02:28:14;101351.03;;;18.66;57.25
50250;BME280;36133;42.522;27.456;2022-09-09T02:30:43;101096.00;;;17.04;57.76
50250;BME280;36133;42.522;27.456;2022-09-09T02:33:12;101059.63;;;16.85;57.28
50250;BME280;36133;42.522;27.456;2022-09-09T02:35:40;101204.41;;;17.78;57.06
50250;BME280;36133;42.522;27.456;2022-09-09T02:38:11;101367.84;;;18.13;58.35
50250;BME280;36133;42.522;27.456;2022-09-09T02:40:38;101156.13;;;17.22;57.55
50250;BME280;36133;42.522;27.456;2022-09-09T02:43:04;101461.06;;;18.68;58.48
50250;BME280;36133;42.522;27.456;2022-09-09T02:45:57;101567.41;;;20.49;55.81
50250;BME280;36133;42.522;27.456;2022-09-09T02:48:42;101414.41;;;19.61;54.73
50250;BME280;36133;42.522;27.456;2022-09-09T02:51:38;101449.63;;;20.06;54.73
50250;BME280;36133;42.522;27.456;2022-09-09T02:54:20;101425.72;;;20.13;54.46
50250;BME280;36133;42.522;27.456;2022-09-09T02:56:53;101067.88;;;18.15;53.56
50250;BME280;36133;42.522;27.456;2022-09-09T02:59:20;101409.59;;;20.58;53.38
50250;BME280;36133;42.522;27.456;2022-09-09T03:01:46;101335.97;;;20.20;53.03
50250;BME280;36133;42.522;27.456;2022-09-09T03:04:12;101292.91;;;19.37;53.96
50250;BME280;36133;42.522;27.456;2022-09-09T03:06:38;101409.94;;;20.38;53.80
50250;BME280;36133;42.522;27.456;2022-09-09T03:09:03;101226.88;;;19.64;52.68
50250;BME280;36133;42.522;27.456;2022-09-09T03:11:29;101280.06;;;19.56;53.73
50250;BME280;36133;42.522;27.456;2022-09-09T03:13:55;101350.13;;;20.05;53.65
50250;BME280;36133;42.522;27.456;2022-09-09T03:16:22;101577.44;;;20.97;54.31
50250;BME280;36133;42.522;27.456;2022-09-09T03:18:48;101133.91;;;18.49;53.73
50250;BME280;36133;42.522;27.456;2022-09-09T03:21:13;101148.72;;;17.54;56.63
50250;BME280;36133;42.522;27.456;2022-09-09T03:23:39;101415.03;;;18.58;58.92
50250;BME280;36133;42.522;27.456;2022-09-09T03:26:05;101440.56;;;19.20;57.86
50250;BME280;36133;42.522;27.456;2022-09-09T03:28:31;101358.72;;;19.12;55.96
50250;BME280;36133;42.522;27.456;2022-09-09T03:31:00;101503.56;;;19.94;56.51
50250;BME280;36133;42.522;27.456;2022-09-09T03:33:26;101250.28;;;18.20;56.42
50250;BME280;36133;42.522;27.456;2022-09-09T03:35:52;101329.34;;;17.90;58.71
50250;BME280;36133;42.522;27.456;2022-09-09T03:38:18;101338.50;;;17.25;61.01
50250;BME280;36133;42.522;27.456;2022-09-09T03:40:53;101551.84;;;18.00;63.76
50250;BME280;36133;42.522;27.456;2022-09-09T03:43:24;101324.00;;;16.74;63.29
50250;BME280;36133;42.522;27.456;2022-09-09T03:45:50;101551.69;;;18.33;63.06
50250;BME280;36133;42.522;27.456;2022-09-09T03:48:17;101420.16;;;17.27;63.69
50250;BME280;36133;42.522;27.456;2022-09-09T03:50:47;101401.50;;;17.17;63.16
50250;BME280;36133;42.522;27.456;2022-09-09T03:53:14;101325.22;;;16.84;62.45
50250;BME280;36133;42.522;27.456;2022-09-09T03:55:44;101468.44;;;17.26;63.25
50250;BME280;36133;42.522;27.456;2022-09-09T03:58:11;101246.06;;;16.06;62.56
50250;BME280;36133;42.522;27.456;2022-09-09T04:00:37;101612.38;;;18.49;62.71
50250;BME280;36133;42.522;27.456;2022-09-09T04:03:09;101258.97;;;16.57;61.50
50250;BME280;36133;42.522;27.456;2022-09-09T04:05:35;101495.81;;;17.84;62.88
50250;BME280;36133;42.522;27.456;2022-09-09T04:08:07;101097.16;;;15.47;62.77
50250;BME280;36133;42.522;27.456;2022-09-09T04:10:33;101450.59;;;17.89;61.74
50250;BME280;36133;42.522;27.456;2022-09-09T04:13:01;101065.38;;;15.21;63.49
50250;BME280;36133;42.522;27.456;2022-09-09T04:15:27;101348.34;;;17.33;62.83
50250;BME280;36133;42.522;27.456;2022-09-09T04:17:53;101514.19;;;18.79;61.97
50250;BME280;36133;42.522;27.456;2022-09-09T04:20:18;101441.03;;;18.11;61.89
50250;BME280;36133;42.522;27.456;2022-09-09T04:22:44;101404.13;;;18.27;61.96
50250;BME280;36133;42.522;27.456;2022-09-09T04:25:10;101386.38;;;18.11;61.47
50250;BME280;36133;42.522;27.456;2022-09-09T04:27:35;101505.66;;;18.93;61.13
50250;BME280;36133;42.522;27.456;2022-09-09T04:30:01;101263.81;;;17.51;61.03
50250;BME280;36133;42.522;27.456;2022-09-09T04:32:26;101300.25;;;18.02;60.46
50250;BME280;36133;42.522;27.456;2022-09-09T04:34:52;101269.19;;;18.64;58.13
50250;BME280;36133;42.522;27.456;2022-09-09T04:37:18;101470.09;;;19.55;58.22
50250;BME280;36133;42.522;27.456;2022-09-09T04:39:44;101300.06;;;19.56;54.91
50250;BME280;36133;42.522;27.456;2022-09-09T04:42:10;101423.75;;;19.35;56.81
50250;BME280;36133;42.522;27.456;2022-09-09T04:44:36;101443.19;;;20.00;55.66
50250;BME280;36133;42.522;27.456;2022-09-09T04:47:02;101323.50;;;19.52;54.85
50250;BME280;36133;42.522;27.456;2022-09-09T04:49:27;101391.31;;;19.99;54.70
50250;BME280;36133;42.522;27.456;2022-09-09T04:51:53;101579.06;;;20.26;56.48
50250;BME280;36133;42.522;27.456;2022-09-09T04:54:18;101346.94;;;19.12;56.17
50250;BME280;36133;42.522;27.456;2022-09-09T04:56:44;101386.78;;;19.08;57.49
50250;BME280;36133;42.522;27.456;2022-09-09T04:59:09;101424.28;;;19.07;58.51
50250;BME280;36133;42.522;27.456;2022-09-09T05:01:35;101574.47;;;21.10;55.85
50250;BME280;36133;42.522;27.456;2022-09-09T05:04:02;101304.47;;;19.87;54.30
50250;BME280;36133;42.522;27.456;2022-09-09T05:06:28;101572.97;;;21.38;54.71
50250;BME280;36133;42.522;27.456;2022-09-09T05:08:56;101265.63;;;20.02;53.29
50250;BME280;36133;42.522;27.456;2022-09-09T05:11:28;101446.50;;;21.84;51.02
50250;BME280;36133;42.522;27.456;2022-09-09T05:13:54;101387.13;;;22.29;49.29
50250;BME280;36133;42.522;27.456;2022-09-09T05:16:20;101183.91;;;21.60;48.18
50250;BME280;36133;42.522;27.456;2022-09-09T05:18:46;101349.56;;;23.28;46.59
50250;BME280;36133;42.522;27.456;2022-09-09T05:21:14;101446.78;;;24.16;46.34
50250;BME280;36133;42.522;27.456;2022-09-09T05:23:40;101598.34;;;24.99;46.28
50250;BME280;36133;42.522;27.456;2022-09-09T05:26:07;101482.53;;;24.87;45.09
50250;BME280;36133;42.522;27.456;2022-09-09T05:28:35;101477.19;;;24.21;46.16
50250;BME280;36133;42.522;27.456;2022-09-09T05:31:06;101585.75;;;24.32;46.86
50250;BME280;36133;42.522;27.456;2022-09-09T05:33:33;101523.91;;;23.84;46.86
50250;BME280;36133;42.522;27.456;2022-09-09T05:36:02;101590.31;;;24.00;47.29
50250;BME280;36133;42.522;27.456;2022-09-09T05:38:29;101396.97;;;22.75;48.06
50250;BME280;36133;42.522;27.456;2022-09-09T05:40:55;101595.31;;;23.47;48.96
50250;BME280;36133;42.522;27.456;2022-09-09T05:43:24;101582.53;;;22.62;50.38
50250;BME280;36133;42.522;27.456;2022-09-09T05:46:11;101524.16;;;22.60;49.99
50250;BME280;36133;42.522;27.456;2022-09-09T05:48:38;101475.69;;;22.76;48.96
50250;BME280;36133;42.522;27.456;2022-09-09T05:51:06;101601.91;;;24.45;46.10
50250;BME280;36133;42.522;27.456;2022-09-09T05:53:32;101579.72;;;24.13;47.06
50250;BME280;36133;42.522;27.456;2022-09-09T05:56:07;101481.53;;;22.46;49.55
50250;BME280;36133;42.522;27.456;2022-09-09T05:58:36;101597.75;;;23.27;49.46
50250;BME280;36133;42.522;27.456;2022-09-09T06:01:07;101479.22;;;21.98;51.29
50250;BME280;36133;42.522;27.456;2022-09-09T06:03:35;101604.78;;;22.61;51.90
50250;BME280;36133;42.522;27.456;2022-09-09T06:06:03;101433.09;;;22.62;49.36
50250;BME280;36133;42.522;27.456;2022-09-09T06:08:37;101474.38;;;22.62;50.29
50250;BME280;36133;42.522;27.456;2022-09-09T06:11:09;101509.81;;;22.58;50.88
50250;BME280;36133;42.522;27.456;2022-09-09T06:13:36;101460.03;;;22.43;50.48
50250;BME280;36133;42.522;27.456;2022-09-09T06:16:12;101568.75;;;23.58;49.54
50250;BME280;36133;42.522;27.456;2022-09-09T06:18:38;101496.25;;;22.85;49.83
50250;BME280;36133;42.522;27.456;2022-09-09T06:21:21;101592.00;;;23.84;48.45
50250;BME280;36133;42.522;27.456;2022-09-09T06:23:48;101274.91;;;21.80;48.83
50250;BME280;36133;42.522;27.456;2022-09-09T06:26:16;101322.75;;;21.96;49.56
50250;BME280;36133;42.522;27.456;2022-09-09T06:28:44;101457.38;;;23.37;47.94
50250;BME280;36133;42.522;27.456;2022-09-09T06:31:12;101300.19;;;22.28;48.32
50250;BME280;36133;42.522;27.456;2022-09-09T06:33:39;101299.03;;;22.79;47.17
50250;BME280;36133;42.522;27.456;2022-09-09T06:36:16;101596.34;;;24.62;47.55
50250;BME280;36133;42.522;27.456;2022-09-09T06:38:43;101310.63;;;22.42;48.19
50250;BME280;36133;42.522;27.456;2022-09-09T06:41:10;101633.88;;;24.63;47.64
50250;BME280;36133;42.522;27.456;2022-09-09T06:43:36;101219.94;;;21.80;48.12
50250;BME280;36133;42.522;27.456;2022-09-09T06:46:05;101254.88;;;22.69;47.13
50250;BME280;36133;42.522;27.456;2022-09-09T06:48:31;101510.34;;;24.26;46.90
50250;BME280;36133;42.522;27.456;2022-09-09T06:51:04;101623.78;;;24.74;47.42
50250;BME280;36133;42.522;27.456;2022-09-09T06:53:35;101382.16;;;23.80;45.68
50250;BME280;36133;42.522;27.456;2022-09-09T06:58:45;101356.97;;;23.72;44.79
50250;BME280;36133;42.522;27.456;2022-09-09T07:01:17;101288.69;;;23.30;44.77
50250;BME280;36133;42.522;27.456;2022-09-09T07:03:49;101419.19;;;24.16;44.79
50250;BME280;36133;42.522;27.456;2022-09-09T07:06:37;101641.50;;;26.11;43.49
50250;BME280;36133;42.522;27.456;2022-09-09T07:09:05;101545.50;;;25.64;43.06
50250;BME280;36133;42.522;27.456;2022-09-09T07:11:37;101496.66;;;25.75;41.87
50250;BME280;36133;42.522;27.456;2022-09-09T07:14:03;101258.28;;;24.85;41.13
50250;BME280;36133;42.522;27.456;2022-09-09T07:16:29;101464.66;;;27.52;38.72
50250;BME280;36133;42.522;27.456;2022-09-09T07:19:05;101623.78;;;29.11;36.66
50250;BME280;36133;42.522;27.456;2022-09-09T07:21:31;101630.94;;;29.22;36.94
50250;BME280;36133;42.522;27.456;2022-09-09T07:23:58;101215.06;;;26.28;37.93
50250;BME280;36133;42.522;27.456;2022-09-09T07:26:26;101623.88;;;29.35;37.31
50250;BME280;36133;42.522;27.456;2022-09-09T07:28:52;101618.16;;;30.03;35.33
50250;BME280;36133;42.522;27.456;2022-09-09T07:31:29;101268.09;;;28.19;34.80
50250;BME280;36133;42.522;27.456;2022-09-09T07:33:55;101474.16;;;29.66;34.51
50250;BME280;36133;42.522;27.456;2022-09-09T07:36:24;101474.06;;;29.52;33.48
50250;BME280;36133;42.522;27.456;2022-09-09T07:38:53;101481.50;;;28.70;35.96
50250;BME280;36133;42.522;27.456;2022-09-09T07:41:44;101231.50;;;27.88;33.89
50250;BME280;36133;42.522;27.456;2022-09-09T07:44:15;101273.22;;;27.23;35.63
50250;BME280;36133;42.522;27.456;2022-09-09T07:46:41;101596.19;;;30.01;34.44
50250;BME280;36133;42.522;27.456;2022-09-09T07:49:09;101162.16;;;27.09;34.57
50250;BME280;36133;42.522;27.456;2022-09-09T07:51:40;101346.91;;;27.89;36.07
50250;BME280;36133;42.522;27.456;2022-09-09T07:54:08;101256.72;;;26.93;37.40
50250;BME280;36133;42.522;27.456;2022-09-09T07:56:35;101320.53;;;27.37;36.70
50250;BME280;36133;42.522;27.456;2022-09-09T07:59:02;101471.41;;;29.13;35.36
50250;BME280;36133;42.522;27.456;2022-09-09T08:01:43;101541.81;;;30.71;33.49
50250;BME280;36133;42.522;27.456;2022-09-09T08:04:12;101622.31;;;31.29;32.04
50250;BME280;36133;42.522;27.456;2022-09-09T08:06:46;101347.47;;;31.04;30.24
50250;BME280;36133;42.522;27.456;2022-09-09T08:09:12;101582.75;;;31.87;29.62
50250;BME280;36133;42.522;27.456;2022-09-09T08:11:39;101103.28;;;30.39;26.19
50250;BME280;36133;42.522;27.456;2022-09-09T08:14:06;101426.63;;;32.49;25.49
50250;BME280;36133;42.522;27.456;2022-09-09T08:16:35;101512.25;;;32.31;25.60
50250;BME280;36133;42.522;27.456;2022-09-09T08:19:05;101217.38;;;29.28;28.91
50250;BME280;36133;42.522;27.456;2022-09-09T08:21:33;101461.00;;;31.17;28.52
50250;BME280;36133;42.522;27.456;2022-09-09T08:24:00;101577.03;;;32.69;26.88
50250;BME280;36133;42.522;27.456;2022-09-09T08:26:28;101173.41;;;30.96;27.02
50250;BME280;36133;42.522;27.456;2022-09-09T08:28:56;101237.03;;;32.11;25.75
50250;BME280;36133;42.522;27.456;2022-09-09T08:31:28;101156.34;;;32.98;24.42
50250;BME280;36133;42.522;27.456;2022-09-09T08:33:55;101375.66;;;34.57;26.05
50250;BME280;36133;42.522;27.456;2022-09-09T08:36:23;101309.91;;;32.23;30.67
50250;BME280;36133;42.522;27.456;2022-09-09T08:38:52;101413.72;;;33.72;31.37
50250;BME280;36133;42.522;27.456;2022-09-09T08:44:36;101556.38;;;32.79;34.13
50250;BME280;36133;42.522;27.456;2022-09-09T08:52:39;101218.81;;;32.93;30.55
50250;BME280;36133;42.522;27.456;2022-09-09T08:55:50;101548.50;;;34.53;30.48
50250;BME280;36133;42.522;27.456;2022-09-09T08:58:33;101185.34;;;31.69;31.76
50250;BME280;36133;42.522;27.456;2022-09-09T09:03:53;101329.88;;;33.75;28.55
50250;BME280;36133;42.522;27.456;2022-09-09T09:09:11;101548.75;;;32.84;32.95
50250;BME280;36133;42.522;27.456;2022-09-09T09:11:55;101209.69;;;31.55;32.43
50250;BME280;36133;42.522;27.456;2022-09-09T09:14:30;101212.41;;;32.44;32.33
50250;BME280;36133;42.522;27.456;2022-09-09T09:17:09;101112.00;;;31.10;33.02
50250;BME280;36133;42.522;27.456;2022-09-09T09:19:39;101530.66;;;32.68;34.61
50250;BME280;36133;42.522;27.456;2022-09-09T09:22:22;101336.94;;;33.64;32.28
50250;BME280;36133;42.522;27.456;2022-09-09T09:24:56;101391.34;;;33.89;32.78
50250;BME280;36133;42.522;27.456;2022-09-09T09:29:51;101193.66;;;32.84;32.96
50250;BME280;36133;42.522;27.456;2022-09-09T09:32:22;101257.44;;;32.82;33.69
50250;BME280;36133;42.522;27.456;2022-09-09T09:34:51;101342.25;;;33.92;33.00
50250;BME280;36133;42.522;27.456;2022-09-09T09:37:27;101094.31;;;33.13;31.82
50250;BME280;36133;42.522;27.456;2022-09-09T09:39:54;101312.88;;;32.27;35.28
50250;BME280;36133;42.522;27.456;2022-09-09T09:42:20;101158.84;;;32.11;34.76
50250;BME280;36133;42.522;27.456;2022-09-09T09:44:46;101289.47;;;31.92;36.19
50250;BME280;36133;42.522;27.456;2022-09-09T09:47:14;101365.28;;;32.07;37.06
50250;BME280;36133;42.522;27.456;2022-09-09T09:49:53;101521.88;;;34.77;34.41
50250;BME280;36133;42.522;27.456;2022-09-09T09:52:24;101382.25;;;34.35;33.78
50250;BME280;36133;42.522;27.456;2022-09-09T09:54:50;101049.06;;;32.50;33.70
50250;BME280;36133;42.522;27.456;2022-09-09T09:57:18;101414.13;;;35.04;33.65
50250;BME280;36133;42.522;27.456;2022-09-09T09:59:47;101049.63;;;31.19;36.50
50250;BME280;36133;42.522;27.456;2022-09-09T10:04:38;101111.84;;;32.53;35.39
50250;BME280;36133;42.522;27.456;2022-09-09T10:07:16;101340.28;;;34.91;34.36
50250;BME280;36133;42.522;27.456;2022-09-09T10:09:55;101140.66;;;32.79;35.50
50250;BME280;36133;42.522;27.456;2022-09-09T10:15:54;101459.13;;;32.89;38.66
50250;BME280;36133;42.522;27.456;2022-09-09T10:21:31;101498.22;;;35.38;35.36
50250;BME280;36133;42.522;27.456;2022-09-09T10:30:01;101483.50;;;35.71;35.18
50250;BME280;36133;42.522;27.456;2022-09-09T10:32:51;101208.81;;;33.27;36.35
50250;BME280;36133;42.522;27.456;2022-09-09T10:35:50;101235.50;;;33.76;35.54
50250;BME280;36133;42.522;27.456;2022-09-09T10:38:27;101049.63;;;31.19;38.00
50250;BME280;36133;42.522;27.456;2022-09-09T10:55:18;101491.56;;;35.43;36.54
50250;BME280;36133;42.522;27.456;2022-09-09T10:57:47;101247.41;;;34.28;35.89
50250;BME280;36133;42.522;27.456;2022-09-09T11:00:18;101464.53;;;35.30;36.04
50250;BME280;36133;42.522;27.456;2022-09-09T11:02:59;101194.47;;;34.06;35.32
50250;BME280;36133;42.522;27.456;2022-09-09T11:05:31;101150.75;;;34.52;33.92
50250;BME280;36133;42.522;27.456;2022-09-09T11:08:04;101349.34;;;34.88;35.63
50250;BME280;36133;42.522;27.456;2022-09-09T11:11:00;101125.06;;;33.47;35.44
50250;BME280;36133;42.522;27.456;2022-09-09T11:14:09;101446.56;;;35.22;35.54
50250;BME280;36133;42.522;27.456;2022-09-09T11:16:45;101464.28;;;36.11;34.61
50250;BME280;36133;42.522;27.456;2022-09-09T11:24:55;101413.25;;;34.56;36.90
50250;BME280;36133;42.522;27.456;2022-09-09T11:40:34;101198.97;;;33.64;35.52
50250;BME280;36133;42.522;27.456;2022-09-09T11:43:12;101175.50;;;32.73;37.16
50250;BME280;36133;42.522;27.456;2022-09-09T11:45:41;101177.53;;;33.68;35.79
50250;BME280;36133;42.522;27.456;2022-09-09T11:48:26;101020.38;;;32.27;36.68
50250;BME280;36133;42.522;27.456;2022-09-09T11:51:00;101103.91;;;33.76;34.63
50250;BME280;36133;42.522;27.456;2022-09-09T11:53:28;101407.84;;;35.45;35.60
50250;BME280;36133;42.522;27.456;2022-09-09T11:56:09;101095.13;;;33.48;35.62
50250;BME280;36133;42.522;27.456;2022-09-09T11:58:53;101252.78;;;34.59;35.30
50250;BME280;36133;42.522;27.456;2022-09-09T12:01:39;101282.13;;;33.80;36.44
50250;BME280;36133;42.522;27.456;2022-09-09T12:04:14;101026.78;;;32.19;36.96
50250;BME280;36133;42.522;27.456;2022-09-09T12:09:48;101402.53;;;35.52;35.48
50250;BME280;36133;42.522;27.456;2022-09-09T12:17:43;101174.41;;;33.17;37.14
50250;BME280;36133;42.522;27.456;2022-09-09T12:20:23;101395.00;;;34.42;37.29
50250;BME280;36133;42.522;27.456;2022-09-09T12:31:17;101380.97;;;34.42;36.59
50250;BME280;36133;42.522;27.456;2022-09-09T12:33:46;101043.72;;;32.23;37.19
50250;BME280;36133;42.522;27.456;2022-09-09T12:36:27;101073.59;;;33.87;35.35
50250;BME280;36133;42.522;27.456;2022-09-09T12:38:58;101220.63;;;34.10;36.52
50250;BME280;36133;42.522;27.456;2022-09-09T12:41:28;101164.06;;;33.61;37.12
50250;BME280;36133;42.522;27.456;2022-09-09T12:44:09;100840.19;;;31.30;37.37
50250;BME280;36133;42.522;27.456;2022-09-09T12:46:43;100983.13;;;32.67;36.04
50250;BME280;36133;42.522;27.456;2022-09-09T12:49:30;101353.22;;;35.63;35.40
50250;BME280;36133;42.522;27.456;2022-09-09T12:52:47;101331.19;;;35.53;35.28
50250;BME280;36133;42.522;27.456;2022-09-09T12:54:50;101068.50;;;32.99;36.59
50250;BME280;36133;42.522;27.456;2022-09-09T12:57:17;100790.41;;;30.44;37.50
50250;BME280;36133;42.522;27.456;2022-09-09T12:59:44;100859.00;;;30.84;37.52
50250;BME280;36133;42.522;27.456;2022-09-09T13:02:22;101189.50;;;32.33;38.82
50250;BME280;36133;42.522;27.456;2022-09-09T13:04:48;101033.75;;;31.51;38.47
50250;BME280;36133;42.522;27.456;2022-09-09T13:07:16;101061.81;;;31.10;39.13
50250;BME280;36133;42.522;27.456;2022-09-09T13:09:42;101224.97;;;33.73;36.42
50250;BME280;36133;42.522;27.456;2022-09-09T13:12:14;101014.88;;;32.97;35.52
50250;BME280;36133;42.522;27.456;2022-09-09T13:14:43;101004.19;;;32.73;35.54
50250;BME280;36133;42.522;27.456;2022-09-09T13:17:27;101204.66;;;34.57;34.96
50250;BME280;36133;42.522;27.456;2022-09-09T13:19:56;100993.63;;;33.13;35.19
50250;BME280;36133;42.522;27.456;2022-09-09T13:22:35;101184.75;;;35.63;33.13
50250;BME280;36133;42.522;27.456;2022-09-09T13:25:17;100961.09;;;32.65;35.50
50250;BME280;36133;42.522;27.456;2022-09-09T13:27:56;101147.63;;;33.08;36.55
50250;BME280;36133;42.522;27.456;2022-09-09T13:30:33;101348.31;;;33.68;38.02
50250;BME280;36133;42.522;27.456;2022-09-09T13:36:07;100995.31;;;32.97;36.15
50250;BME280;36133;42.522;27.456;2022-09-09T13:38:58;101310.41;;;34.31;36.66
50250;BME280;36133;42.522;27.456;2022-09-09T13:41:26;101087.13;;;32.29;38.19
50250;BME280;36133;42.522;27.456;2022-09-09T13:43:53;100930.16;;;32.10;36.60
50250;BME280;36133;42.522;27.456;2022-09-09T13:46:34;100938.63;;;32.35;35.74
50250;BME280;36133;42.522;27.456;2022-09-09T13:51:45;101074.00;;;32.29;37.50
50250;BME280;36133;42.522;27.456;2022-09-09T13:54:14;101178.06;;;32.13;38.30
50250;BME280;36133;42.522;27.456;2022-09-09T13:56:41;101056.97;;;32.91;36.44
50250;BME280;36133;42.522;27.456;2022-09-09T13:59:12;100934.94;;;32.18;35.76
50250;BME280;36133;42.522;27.456;2022-09-09T14:01:39;101170.38;;;32.67;37.75
50250;BME280;36133;42.522;27.456;2022-09-09T14:04:06;101084.25;;;33.38;35.63
50250;BME280;36133;42.522;27.456;2022-09-09T14:06:32;101307.72;;;34.99;35.51
50250;BME280;36133;42.522;27.456;2022-09-09T14:08:58;101158.16;;;33.45;36.08
50250;BME280;36133;42.522;27.456;2022-09-09T14:11:24;101124.25;;;33.38;36.26
50250;BME280;36133;42.522;27.456;2022-09-09T14:13:50;100934.34;;;31.64;37.17
50250;BME280;36133;42.522;27.456;2022-09-09T14:16:17;100944.25;;;31.78;37.66
50250;BME280;36133;42.522;27.456;2022-09-09T14:18:44;100903.75;;;32.42;36.42
50250;BME280;36133;42.522;27.456;2022-09-09T14:21:10;101049.03;;;34.22;34.50
50250;BME280;36133;42.522;27.456;2022-09-09T14:23:36;101150.06;;;33.61;35.81
50250;BME280;36133;42.522;27.456;2022-09-09T14:26:04;100933.50;;;31.24;37.05
50250;BME280;36133;42.522;27.456;2022-09-09T14:28:30;101308.72;;;35.23;34.44
50250;BME280;36133;42.522;27.456;2022-09-09T14:30:59;101158.75;;;34.41;34.87
50250;BME280;36133;42.522;27.456;2022-09-09T14:33:25;101073.09;;;32.86;36.37
50250;BME280;36133;42.522;27.456;2022-09-09T14:36:02;100968.13;;;33.06;34.89
50250;BME280;36133;42.522;27.456;2022-09-09T14:38:33;100892.81;;;31.71;35.90
50250;BME280;36133;42.522;27.456;2022-09-09T14:41:00;101160.75;;;33.07;36.07
50250;BME280;36133;42.522;27.456;2022-09-09T14:43:28;101092.53;;;33.90;34.14
50250;BME280;36133;42.522;27.456;2022-09-09T14:45:55;101031.84;;;31.69;37.09
50250;BME280;36133;42.522;27.456;2022-09-09T14:48:21;101005.75;;;32.22;36.02
50250;BME280;36133;42.522;27.456;2022-09-09T14:50:47;100939.03;;;32.03;36.31
50250;BME280;36133;42.522;27.456;2022-09-09T14:53:12;100891.72;;;32.06;35.88
50250;BME280;36133;42.522;27.456;2022-09-09T14:55:38;101204.25;;;34.67;35.08
50250;BME280;36133;42.522;27.456;2022-09-09T14:58:04;101110.09;;;33.17;36.43
50250;BME280;36133;42.522;27.456;2022-09-09T15:00:31;101051.53;;;33.21;35.59
50250;BME280;36133;42.522;27.456;2022-09-09T15:03:00;101033.16;;;31.71;37.17
50250;BME280;36133;42.522;27.456;2022-09-09T15:05:25;100953.13;;;31.81;35.98
50250;BME280;36133;42.522;27.456;2022-09-09T15:07:51;101042.56;;;33.54;34.95
50250;BME280;36133;42.522;27.456;2022-09-09T15:10:17;101153.00;;;33.82;35.80
50250;BME280;36133;42.522;27.456;2022-09-09T15:12:43;101153.16;;;33.77;35.81
50250;BME280;36133;42.522;27.456;2022-09-09T15:15:09;100851.63;;;30.88;37.84
50250;BME280;36133;42.522;27.456;2022-09-09T15:17:35;101032.19;;;32.16;36.89